sensor_id;sensor_type;location;lat;lon;timestamp;temperature;humidity
43414;DHT22;29013;49.676;8.606;2023-02-04T00:02:54;9.8;99.9
43414;DHT22;29013;49.676;8.606;2023-02-04T00:08:18;9.8;99.9
43414;DHT22;29013;49.676;8.606;2023-02-04T00:14:02;9.7;99.9
43414;DHT22;29013;49.676;8.606;2023-02-04T00:19:25;9.8;99.9
43414;DHT22;29013;49.676;8.606;2023-02-04T00:24:49;9.8;99.9
43414;DHT22;29013;49.676;8.606;2023-02-04T00:30:16;9.7;99.9
43414;DHT22;29013;49.676;8.606;2023-02-04T00:35:41;9.7;99.9
43414;DHT22;29013;49.676;8.606;2023-02-04T00:41:07;9.7;99.9
43414;DHT22;29013;49.676;8.606;2023-02-04T00:46:33;9.7;99.9
43414;DHT22;29013;49.676;8.606;2023-02-04T00:51:57;9.7;99.9
43414;DHT22;29013;49.676;8.606;2023-02-04T00:57:22;9.7;99.9
43414;DHT22;29013;49.676;8.606;2023-02-04T01:02:47;9.7;99.9
43414;DHT22;29013;49.676;8.606;2023-02-04T01:08:12;9.6;99.9
43414;DHT22;29013;49.676;8.606;2023-02-04T01:13:36;9.6;99.9
43414;DHT22;29013;49.676;8.606;2023-02-04T01:18:58;9.5;99.9
43414;DHT22;29013;49.676;8.606;2023-02-04T01:24:22;9.5;99.9
43414;DHT22;29013;49.676;8.606;2023-02-04T01:29:47;9.5;99.9
43414;DHT22;29013;49.676;8.606;2023-02-04T01:35:12;9.5;99.9
43414;DHT22;29013;49.676;8.606;2023-02-04T01:40:38;9.5;99.9
43414;DHT22;29013;49.676;8.606;2023-02-04T01:46:02;9.5;99.9
43414;DHT22;29013;49.676;8.606;2023-02-04T01:51:27;9.5;99.9
43414;DHT22;29013;49.676;8.606;2023-02-04T01:56:51;9.5;99.9
43414;DHT22;29013;49.676;8.606;2023-02-04T02:02:40;9.4;99.9
43414;DHT22;29013;49.676;8.606;2023-02-04T02:08:05;9.4;99.9
43414;DHT22;29013;49.676;8.606;2023-02-04T02:13:30;9.3;99.9
43414;DHT22;29013;49.676;8.606;2023-02-04T02:18:52;9.3;99.9
43414;DHT22;29013;49.676;8.606;2023-02-04T02:24:28;9.2;99.9
43414;DHT22;29013;49.676;8.606;2023-02-04T02:30:13;9.2;99.9
43414;DHT22;29013;49.676;8.606;2023-02-04T02:35:36;9.3;99.9
43414;DHT22;29013;49.676;8.606;2023-02-04T02:41:01;9.2;99.9
43414;DHT22;29013;49.676;8.606;2023-02-04T02:46:26;9.2;99.9
43414;DHT22;29013;49.676;8.606;2023-02-04T02:51:44;9.2;99.9
43414;DHT22;29013;49.676;8.606;2023-02-04T02:57:04;9.2;99.9
43414;DHT22;29013;49.676;8.606;2023-02-04T03:02:29;9.1;99.9
43414;DHT22;29013;49.676;8.606;2023-02-04T03:07:54;9.1;99.9
43414;DHT22;29013;49.676;8.606;2023-02-04T03:13:13;9.1;99.9
43414;DHT22;29013;49.676;8.606;2023-02-04T03:18:34;8.9;99.9
43414;DHT22;29013;49.676;8.606;2023-02-04T03:23:58;8.8;99.9
43414;DHT22;29013;49.676;8.606;2023-02-04T03:29:22;8.8;99.9
43414;DHT22;29013;49.676;8.606;2023-02-04T03:34:44;8.8;99.9
43414;DHT22;29013;49.676;8.606;2023-02-04T03:40:12;8.8;99.9
43414;DHT22;29013;49.676;8.606;2023-02-04T03:45:35;8.8;99.9
43414;DHT22;29013;49.676;8.606;2023-02-04T03:50:56;8.8;99.9
43414;DHT22;29013;49.676;8.606;2023-02-04T03:56:21;8.9;99.9
43414;DHT22;29013;49.676;8.606;2023-02-04T04:01:46;8.8;99.9
43414;DHT22;29013;49.676;8.606;2023-02-04T04:07:10;8.8;99.9
43414;DHT22;29013;49.676;8.606;2023-02-04T04:12:34;8.7;99.9
43414;DHT22;29013;49.676;8.606;2023-02-04T04:17:58;8.5;99.9
43414;DHT22;29013;49.676;8.606;2023-02-04T04:23:23;8.4;99.9
43414;DHT22;29013;49.676;8.606;2023-02-04T04:28:48;8.4;99.9
43414;DHT22;29013;49.676;8.606;2023-02-04T04:34:29;8.2;99.9
43414;DHT22;29013;49.676;8.606;2023-02-04T04:39:53;8.3;99.9
43414;DHT22;29013;49.676;8.606;2023-02-04T04:45:17;8.3;99.9
43414;DHT22;29013;49.676;8.606;2023-02-04T04:50:39;8.3;99.9
43414;DHT22;29013;49.676;8.606;2023-02-04T04:56:01;8.3;99.9
43414;DHT22;29013;49.676;8.606;2023-02-04T05:01:21;8.4;99.9
43414;DHT22;29013;49.676;8.606;2023-02-04T05:06:43;8.4;99.9
43414;DHT22;29013;49.676;8.606;2023-02-04T05:12:04;8.4;99.9
43414;DHT22;29013;49.676;8.606;2023-02-04T05:17:29;8.4;99.9
43414;DHT22;29013;49.676;8.606;2023-02-04T05:22:54;8.4;99.9
43414;DHT22;29013;49.676;8.606;2023-02-04T05:28:20;8.4;99.9
43414;DHT22;29013;49.676;8.606;2023-02-04T05:34:01;8.2;99.9
43414;DHT22;29013;49.676;8.606;2023-02-04T05:39:26;8.1;99.9
43414;DHT22;29013;49.676;8.606;2023-02-04T05:44:50;7.9;99.9
43414;DHT22;29013;49.676;8.606;2023-02-04T05:50:10;7.9;99.9
43414;DHT22;29013;49.676;8.606;2023-02-04T05:55:32;7.9;99.9
43414;DHT22;29013;49.676;8.606;2023-02-04T06:00:58;7.8;99.9
43414;DHT22;29013;49.676;8.606;2023-02-04T06:06:24;7.9;99.9
43414;DHT22;29013;49.676;8.606;2023-02-04T06:12:11;7.8;99.9
43414;DHT22;29013;49.676;8.606;2023-02-04T06:17:35;8.0;99.9
43414;DHT22;29013;49.676;8.606;2023-02-04T06:22:57;7.9;99.9
43414;DHT22;29013;49.676;8.606;2023-02-04T06:28:23;7.7;99.9
43414;DHT22;29013;49.676;8.606;2023-02-04T06:33:48;7.5;99.9
43414;DHT22;29013;49.676;8.606;2023-02-04T06:39:13;7.5;99.9
43414;DHT22;29013;49.676;8.606;2023-02-04T06:44:34;7.5;99.9
43414;DHT22;29013;49.676;8.606;2023-02-04T06:50:00;7.6;99.9
43414;DHT22;29013;49.676;8.606;2023-02-04T06:55:26;7.7;99.9
43414;DHT22;29013;49.676;8.606;2023-02-04T07:00:51;7.5;99.9
43414;DHT22;29013;49.676;8.606;2023-02-04T07:06:16;7.4;99.9
43414;DHT22;29013;49.676;8.606;2023-02-04T07:11:38;7.3;99.9
43414;DHT22;29013;49.676;8.606;2023-02-04T07:16:57;7.2;99.9
43414;DHT22;29013;49.676;8.606;2023-02-04T07:22:17;7.4;99.9
43414;DHT22;29013;49.676;8.606;2023-02-04T07:27:35;7.5;99.9
43414;DHT22;29013;49.676;8.606;2023-02-04T07:32:54;7.7;99.9
43414;DHT22;29013;49.676;8.606;2023-02-04T07:38:13;7.9;99.9
43414;DHT22;29013;49.676;8.606;2023-02-04T07:43:58;7.9;99.9
43414;DHT22;29013;49.676;8.606;2023-02-04T07:49:21;8.3;99.9
43414;DHT22;29013;49.676;8.606;2023-02-04T07:55:26;8.3;99.9
43414;DHT22;29013;49.676;8.606;2023-02-04T08:00:43;8.5;99.9
43414;DHT22;29013;49.676;8.606;2023-02-04T08:06:07;8.5;99.9
43414;DHT22;29013;49.676;8.606;2023-02-04T08:11:31;8.4;99.9
43414;DHT22;29013;49.676;8.606;2023-02-04T08:16:54;8.4;99.9
43414;DHT22;29013;49.676;8.606;2023-02-04T08:22:16;8.3;99.9
43414;DHT22;29013;49.676;8.606;2023-02-04T08:27:40;8.4;99.9
43414;DHT22;29013;49.676;8.606;2023-02-04T08:33:01;8.5;99.9
43414;DHT22;29013;49.676;8.606;2023-02-04T08:38:22;8.5;99.9
43414;DHT22;29013;49.676;8.606;2023-02-04T08:43:45;8.5;99.9
43414;DHT22;29013;49.676;8.606;2023-02-04T08:49:05;8.7;99.9
43414;DHT22;29013;49.676;8.606;2023-02-04T08:54:29;8.8;99.9
43414;DHT22;29013;49.676;8.606;2023-02-04T08:59:51;8.9;99.9
43414;DHT22;29013;49.676;8.606;2023-02-04T09:05:15;8.9;99.9
43414;DHT22;29013;49.676;8.606;2023-02-04T09:10:37;8.9;99.9
43414;DHT22;29013;49.676;8.606;2023-02-04T09:16:00;9.0;99.9
43414;DHT22;29013;49.676;8.606;2023-02-04T09:21:24;9.2;99.9
43414;DHT22;29013;49.676;8.606;2023-02-04T09:26:48;9.1;99.9
43414;DHT22;29013;49.676;8.606;2023-02-04T09:32:13;9.0;99.9
43414;DHT22;29013;49.676;8.606;2023-02-04T09:37:39;9.2;99.9
43414;DHT22;29013;49.676;8.606;2023-02-04T09:43:03;9.4;99.9
43414;DHT22;29013;49.676;8.606;2023-02-04T09:48:28;9.5;99.9
43414;DHT22;29013;49.676;8.606;2023-02-04T09:54:12;9.5;99.9
43414;DHT22;29013;49.676;8.606;2023-02-04T09:59:56;9.6;99.9
43414;DHT22;29013;49.676;8.606;2023-02-04T10:05:20;9.8;99.9
43414;DHT22;29013;49.676;8.606;2023-02-04T10:10:45;9.8;99.9
43414;DHT22;29013;49.676;8.606;2023-02-04T10:16:09;9.9;99.9
43414;DHT22;29013;49.676;8.606;2023-02-04T10:21:32;9.9;99.9
43414;DHT22;29013;49.676;8.606;2023-02-04T10:27:04;10.0;99.2
43414;DHT22;29013;49.676;8.606;2023-02-04T10:32:30;10.0;98.7
43414;DHT22;29013;49.676;8.606;2023-02-04T10:38:03;10.0;98.9
43414;DHT22;29013;49.676;8.606;2023-02-04T10:43:24;10.2;99.4
43414;DHT22;29013;49.676;8.606;2023-02-04T10:48:43;10.2;99.0
43414;DHT22;29013;49.676;8.606;2023-02-04T10:54:09;10.2;99.0
43414;DHT22;29013;49.676;8.606;2023-02-04T10:59:31;10.2;99.1
43414;DHT22;29013;49.676;8.606;2023-02-04T11:05:23;10.3;99.3
43414;DHT22;29013;49.676;8.606;2023-02-04T11:11:14;10.7;99.1
43414;DHT22;29013;49.676;8.606;2023-02-04T11:16:33;11.1;98.2
43414;DHT22;29013;49.676;8.606;2023-02-04T11:22:05;11.1;98.1
43414;DHT22;29013;49.676;8.606;2023-02-04T11:27:36;11.1;98.0
43414;DHT22;29013;49.676;8.606;2023-02-04T11:33:02;11.1;97.0
43414;DHT22;29013;49.676;8.606;2023-02-04T11:38:27;10.9;96.3
43414;DHT22;29013;49.676;8.606;2023-02-04T11:43:48;11.0;96.5
43414;DHT22;29013;49.676;8.606;2023-02-04T11:49:10;10.9;96.6
43414;DHT22;29013;49.676;8.606;2023-02-04T11:54:35;10.9;96.9
43414;DHT22;29013;49.676;8.606;2023-02-04T12:00:00;10.8;96.3
43414;DHT22;29013;49.676;8.606;2023-02-04T12:05:35;11.0;96.4
43414;DHT22;29013;49.676;8.606;2023-02-04T12:11:06;11.2;95.7
43414;DHT22;29013;49.676;8.606;2023-02-04T12:16:28;11.3;95.7
43414;DHT22;29013;49.676;8.606;2023-02-04T12:21:53;11.3;95.8
43414;DHT22;29013;49.676;8.606;2023-02-04T12:27:15;11.4;95.0
43414;DHT22;29013;49.676;8.606;2023-02-04T12:32:41;11.4;94.2
43414;DHT22;29013;49.676;8.606;2023-02-04T12:38:07;11.3;94.6
43414;DHT22;29013;49.676;8.606;2023-02-04T12:43:31;11.3;94.7
43414;DHT22;29013;49.676;8.606;2023-02-04T12:48:56;11.2;94.7
43414;DHT22;29013;49.676;8.606;2023-02-04T12:54:18;11.1;95.1
43414;DHT22;29013;49.676;8.606;2023-02-04T12:59:44;11.2;95.2
43414;DHT22;29013;49.676;8.606;2023-02-04T13:05:10;11.3;94.6
43414;DHT22;29013;49.676;8.606;2023-02-04T13:10:34;11.4;94.2
43414;DHT22;29013;49.676;8.606;2023-02-04T13:15:58;11.5;94.3
43414;DHT22;29013;49.676;8.606;2023-02-04T13:21:23;11.6;94.5
43414;DHT22;29013;49.676;8.606;2023-02-04T13:27:05;11.6;94.1
43414;DHT22;29013;49.676;8.606;2023-02-04T13:32:29;11.6;93.2
43414;DHT22;29013;49.676;8.606;2023-02-04T13:37:55;11.4;93.3
43414;DHT22;29013;49.676;8.606;2023-02-04T13:43:21;11.3;93.5
43414;DHT22;29013;49.676;8.606;2023-02-04T13:48:43;11.2;93.7
43414;DHT22;29013;49.676;8.606;2023-02-04T13:54:08;11.2;93.6
43414;DHT22;29013;49.676;8.606;2023-02-04T13:59:57;10.9;94.3
43414;DHT22;29013;49.676;8.606;2023-02-04T14:05:20;11.1;94.2
43414;DHT22;29013;49.676;8.606;2023-02-04T14:11:07;11.3;94.2
43414;DHT22;29013;49.676;8.606;2023-02-04T14:16:28;11.5;94.0
43414;DHT22;29013;49.676;8.606;2023-02-04T14:21:47;11.3;93.3
43414;DHT22;29013;49.676;8.606;2023-02-04T14:27:09;11.0;93.8
43414;DHT22;29013;49.676;8.606;2023-02-04T14:32:33;10.7;94.2
43414;DHT22;29013;49.676;8.606;2023-02-04T14:37:58;10.6;93.9
43414;DHT22;29013;49.676;8.606;2023-02-04T14:43:23;10.5;94.2
43414;DHT22;29013;49.676;8.606;2023-02-04T14:48:42;10.5;94.5
43414;DHT22;29013;49.676;8.606;2023-02-04T14:54:08;10.4;94.6
43414;DHT22;29013;49.676;8.606;2023-02-04T14:59:33;10.3;94.8
43414;DHT22;29013;49.676;8.606;2023-02-04T15:04:57;10.3;95.0
43414;DHT22;29013;49.676;8.606;2023-02-04T15:10:44;10.0;95.1
43414;DHT22;29013;49.676;8.606;2023-02-04T15:16:08;9.8;95.0
43414;DHT22;29013;49.676;8.606;2023-02-04T15:21:34;9.7;95.2
43414;DHT22;29013;49.676;8.606;2023-02-04T15:27:00;9.8;95.5
43414;DHT22;29013;49.676;8.606;2023-02-04T15:32:21;9.8;95.4
43414;DHT22;29013;49.676;8.606;2023-02-04T15:38:08;9.7;95.7
43414;DHT22;29013;49.676;8.606;2023-02-04T15:43:31;9.8;95.9
43414;DHT22;29013;49.676;8.606;2023-02-04T15:48:56;9.6;95.6
43414;DHT22;29013;49.676;8.606;2023-02-04T15:54:15;9.5;95.3
43414;DHT22;29013;49.676;8.606;2023-02-04T15:59:42;9.4;95.5
43414;DHT22;29013;49.676;8.606;2023-02-04T16:05:04;9.2;95.4
43414;DHT22;29013;49.676;8.606;2023-02-04T16:10:30;8.8;95.7
43414;DHT22;29013;49.676;8.606;2023-02-04T16:16:35;8.3;96.4
43414;DHT22;29013;49.676;8.606;2023-02-04T16:21:54;8.1;96.3
43414;DHT22;29013;49.676;8.606;2023-02-04T16:27:21;7.7;96.9
43414;DHT22;29013;49.676;8.606;2023-02-04T16:32:46;7.4;97.7
43414;DHT22;29013;49.676;8.606;2023-02-04T16:38:05;7.1;98.3
43414;DHT22;29013;49.676;8.606;2023-02-04T16:43:30;7.1;99.0
43414;DHT22;29013;49.676;8.606;2023-02-04T16:48:54;7.3;99.4
43414;DHT22;29013;49.676;8.606;2023-02-04T16:54:19;7.5;99.4
43414;DHT22;29013;49.676;8.606;2023-02-04T16:59:45;7.6;99.8
43414;DHT22;29013;49.676;8.606;2023-02-04T17:05:10;7.8;99.6
43414;DHT22;29013;49.676;8.606;2023-02-04T17:10:35;7.9;99.7
43414;DHT22;29013;49.676;8.606;2023-02-04T17:15:58;7.8;99.5
43414;DHT22;29013;49.676;8.606;2023-02-04T17:21:21;7.9;99.3
43414;DHT22;29013;49.676;8.606;2023-02-04T17:26:44;7.9;99.2
43414;DHT22;29013;49.676;8.606;2023-02-04T17:32:06;7.9;99.4
43414;DHT22;29013;49.676;8.606;2023-02-04T17:37:31;7.7;99.1
43414;DHT22;29013;49.676;8.606;2023-02-04T17:42:57;7.3;99.1
43414;DHT22;29013;49.676;8.606;2023-02-04T17:48:21;7.0;99.4
43414;DHT22;29013;49.676;8.606;2023-02-04T17:53:46;6.8;99.7
43414;DHT22;29013;49.676;8.606;2023-02-04T17:59:27;6.7;99.9
43414;DHT22;29013;49.676;8.606;2023-02-04T18:04:53;6.9;99.9
43414;DHT22;29013;49.676;8.606;2023-02-04T18:10:23;6.9;99.9
43414;DHT22;29013;49.676;8.606;2023-02-04T18:15:47;6.8;99.9
43414;DHT22;29013;49.676;8.606;2023-02-04T18:21:19;6.8;99.9
43414;DHT22;29013;49.676;8.606;2023-02-04T18:26:37;6.8;99.9
43414;DHT22;29013;49.676;8.606;2023-02-04T18:32:01;6.8;99.9
43414;DHT22;29013;49.676;8.606;2023-02-04T18:37:41;6.9;99.9
43414;DHT22;29013;49.676;8.606;2023-02-04T18:43:10;7.2;99.9
43414;DHT22;29013;49.676;8.606;2023-02-04T18:54:31;7.5;99.9
43414;DHT22;29013;49.676;8.606;2023-02-04T18:59:54;7.5;99.9
43414;DHT22;29013;49.676;8.606;2023-02-04T19:05:44;7.2;99.9
43414;DHT22;29013;49.676;8.606;2023-02-04T19:11:04;7.2;99.9
43414;DHT22;29013;49.676;8.606;2023-02-04T19:17:18;7.2;99.9
43414;DHT22;29013;49.676;8.606;2023-02-04T19:22:41;7.6;99.9
43414;DHT22;29013;49.676;8.606;2023-02-04T19:28:02;7.6;99.9
43414;DHT22;29013;49.676;8.606;2023-02-04T19:33:24;7.6;99.9
43414;DHT22;29013;49.676;8.606;2023-02-04T19:38:44;7.7;99.9
43414;DHT22;29013;49.676;8.606;2023-02-04T19:44:31;7.7;99.9
43414;DHT22;29013;49.676;8.606;2023-02-04T19:49:51;7.8;99.9
43414;DHT22;29013;49.676;8.606;2023-02-04T19:55:30;7.8;99.9
43414;DHT22;29013;49.676;8.606;2023-02-04T20:00:59;7.5;99.9
43414;DHT22;29013;49.676;8.606;2023-02-04T20:06:33;7.3;99.9
43414;DHT22;29013;49.676;8.606;2023-02-04T20:11:57;7.1;99.9
43414;DHT22;29013;49.676;8.606;2023-02-04T20:17:35;7.0;99.9
43414;DHT22;29013;49.676;8.606;2023-02-04T20:22:59;7.1;99.9
43414;DHT22;29013;49.676;8.606;2023-02-04T20:28:42;7.2;99.9
43414;DHT22;29013;49.676;8.606;2023-02-04T20:34:14;7.4;99.9
43414;DHT22;29013;49.676;8.606;2023-02-04T20:39:38;7.5;99.9
43414;DHT22;29013;49.676;8.606;2023-02-04T20:45:06;7.5;99.9
43414;DHT22;29013;49.676;8.606;2023-02-04T20:50:35;7.5;99.9
43414;DHT22;29013;49.676;8.606;2023-02-04T20:56:25;7.5;99.9
43414;DHT22;29013;49.676;8.606;2023-02-04T21:01:48;7.7;99.9
43414;DHT22;29013;49.676;8.606;2023-02-04T21:07:14;7.6;99.9
43414;DHT22;29013;49.676;8.606;2023-02-04T21:12:32;7.5;99.9
43414;DHT22;29013;49.676;8.606;2023-02-04T21:17:57;7.2;99.9
43414;DHT22;29013;49.676;8.606;2023-02-04T21:23:22;6.9;99.9
43414;DHT22;29013;49.676;8.606;2023-02-04T21:28:47;6.9;99.9
43414;DHT22;29013;49.676;8.606;2023-02-04T21:34:45;6.9;99.9
43414;DHT22;29013;49.676;8.606;2023-02-04T21:40:11;7.2;99.9
43414;DHT22;29013;49.676;8.606;2023-02-04T21:45:35;7.2;99.9
43414;DHT22;29013;49.676;8.606;2023-02-04T21:51:00;7.1;99.9
43414;DHT22;29013;49.676;8.606;2023-02-04T21:56:26;6.9;99.9
43414;DHT22;29013;49.676;8.606;2023-02-04T22:01:50;6.9;99.9
43414;DHT22;29013;49.676;8.606;2023-02-04T22:07:11;6.9;99.9
43414;DHT22;29013;49.676;8.606;2023-02-04T22:12:35;6.8;99.9
43414;DHT22;29013;49.676;8.606;2023-02-04T22:18:00;6.8;99.9
43414;DHT22;29013;49.676;8.606;2023-02-04T22:23:25;6.6;99.9
43414;DHT22;29013;49.676;8.606;2023-02-04T22:28:51;6.4;99.9
43414;DHT22;29013;49.676;8.606;2023-02-04T22:34:15;6.1;99.9
43414;DHT22;29013;49.676;8.606;2023-02-04T22:39:40;5.8;99.9
43414;DHT22;29013;49.676;8.606;2023-02-04T22:45:06;5.7;99.9
43414;DHT22;29013;49.676;8.606;2023-02-04T22:50:31;5.8;99.9
43414;DHT22;29013;49.676;8.606;2023-02-04T22:55:57;5.7;99.9
43414;DHT22;29013;49.676;8.606;2023-02-04T23:01:19;5.7;99.9
43414;DHT22;29013;49.676;8.606;2023-02-04T23:06:45;5.6;99.9
43414;DHT22;29013;49.676;8.606;2023-02-04T23:12:10;5.5;99.9
43414;DHT22;29013;49.676;8.606;2023-02-04T23:17:32;5.5;99.9
43414;DHT22;29013;49.676;8.606;2023-02-04T23:23:40;5.5;99.9
43414;DHT22;29013;49.676;8.606;2023-02-04T23:29:00;5.6;99.9
43414;DHT22;29013;49.676;8.606;2023-02-04T23:34:24;5.5;99.9
43414;DHT22;29013;49.676;8.606;2023-02-04T23:39:49;5.2;99.9
43414;DHT22;29013;49.676;8.606;2023-02-04T23:45:13;5.1;99.9
43414;DHT22;29013;49.676;8.606;2023-02-04T23:50:38;5.0;99.9
43414;DHT22;29013;49.676;8.606;2023-02-04T23:56:03;5.0;99.9
